New Troy, MI (49119)

9:38 PM EDT on August 27, 2015 (GMT -0400)
Sawyer, MI | | Change Station
CLOSE
Current Station
Personal Weather Station
Location: Three Oaks, MI
Elevation: 653 ft
Nearby Weather Stations

Elev 653 ft 41.87 °N, 86.58 °W | Updated 14 seconds ago

Partly Cloudy
Partly Cloudy
58.6 °F
Feels Like 58.6 °F
N
0.0
Wind Variable Wind from SSW
Gusts 0.0 mph

Today
High -- | Low -- °F
--% Chance of Precip.
Yesterday
High -- | Low -- °F
Precip. -- in
7:06 AM 8:28 PM
Waxing Gibbous, 96% visible
Pressure 30.15 in
Visibility 10.0 miles
Clouds Clear
Dew Point 58 °F
Humidity 99%
Rainfall 0.00 in
Snow Depth Not available.
UV 0.0 out of 12
Pollen 9.70 out of 12
Air Quality Not available.
Flu Activity Not available.
METAR KSBN 280054Z 06003KT 10SM CLR 16/13 A3015 RMK AO2 SLP210 T01610128
Pressure 30.15 in
Visibility 10.0 miles
Clouds Clear
Dew Point 58 °F
Humidity 99%
Rainfall 0.00 in
Snow Depth Not available.
UV 0.0 out of 12
Pollen 9.70 out of 12
Air Quality Not available.
Flu Activity Not available.
METAR KSBN 280054Z 06003KT 10SM CLR 16/13 A3015 RMK AO2 SLP210 T01610128

10-Day Weather Forecast

×

Almanac

Astronomy

Aug. 27, 2015 Rise Set
Actual Time
Civil Twilight
Nautical Twilight
Astronomical Twilight
Moon
Length of Visible Light
Length of Day
Tomorrow will be .
, % of the Moon is Illuminated

Today's Extremes

State Highs State Lows

Community

WunderPhotos

Upload Photos

1,850,297 photos uploaded!

WunderBlogs® & News

Nearby

Air Quality

  Air Quality AQ Index Pollutant
Not available.

Snow Depth

Station Depth Elevation

Earthquake Activity

City Distance Mag. Time & Date
Minimum magnitude displayed is 2.5.

Coastal Water Temperatures

Place Temperature

Stations

Nearby Weather Stations

Station Location Temp. Windchill Dew Point Humidity Wind Precip. Elev Updated Type